createdAt,value
2023-03-25T00:01:40.411Z,9.20
2023-03-25T00:07:43.378Z,9.10
2023-03-25T00:13:45.179Z,9.10
2023-03-25T00:19:50.330Z,9.00
2023-03-25T00:25:52.836Z,8.90
2023-03-25T00:31:54.831Z,8.70
2023-03-25T00:38:00.340Z,8.50
2023-03-25T00:44:03.348Z,8.50
2023-03-25T00:50:06.066Z,8.40
2023-03-25T00:56:08.062Z,8.30
2023-03-25T01:02:10.346Z,8.40
2023-03-25T01:08:14.703Z,8.40
2023-03-25T01:14:19.807Z,8.40
2023-03-25T01:20:21.649Z,8.50
2023-03-25T01:26:23.541Z,8.70
2023-03-25T01:32:25.448Z,8.50
2023-03-25T01:38:27.433Z,8.50
2023-03-25T01:44:29.335Z,8.60
2023-03-25T01:50:32.553Z,8.70
2023-03-25T01:56:41.400Z,8.70
2023-03-25T02:02:43.900Z,8.80
2023-03-25T02:08:45.795Z,8.80
2023-03-25T02:14:48.042Z,8.80
2023-03-25T02:21:14.472Z,8.90
2023-03-25T02:27:27.352Z,9.00
2023-03-25T02:34:03.896Z,9.00
2023-03-25T02:40:11.901Z,9.00
2023-03-25T02:46:17.338Z,8.90
2023-03-25T02:52:29.107Z,8.80
2023-03-25T02:58:33.215Z,8.70
2023-03-25T03:04:56.720Z,8.70
2023-03-25T03:11:04.827Z,8.50
2023-03-25T03:17:18.486Z,8.20
2023-03-25T03:23:49.448Z,8.10
2023-03-25T03:30:16.305Z,7.90
2023-03-25T03:36:21.487Z,7.90
2023-03-25T03:42:31.045Z,7.90
2023-03-25T03:48:40.612Z,8.00
2023-03-25T03:54:57.724Z,8.00
2023-03-25T04:01:09.876Z,8.00
2023-03-25T04:07:22.405Z,7.80
2023-03-25T04:13:25.714Z,7.90
2023-03-25T04:19:27.831Z,7.90
2023-03-25T04:25:31.468Z,8.00
2023-03-25T04:31:33.502Z,8.10
2023-03-25T04:37:37.056Z,8.00
2023-03-25T04:43:45.206Z,7.90
2023-03-25T04:49:48.106Z,7.90
2023-03-25T04:55:50.352Z,8.10
2023-03-25T05:01:55.363Z,8.10
2023-03-25T05:07:58.970Z,8.10
2023-03-25T05:14:01.113Z,8.20
2023-03-25T05:20:05.862Z,8.20
2023-03-25T05:26:08.612Z,8.20
2023-03-25T05:32:13.756Z,8.30
2023-03-25T05:38:18.693Z,8.30
2023-03-25T05:44:20.586Z,8.30
2023-03-25T05:50:22.543Z,8.30
2023-03-25T05:56:25.672Z,8.30
2023-03-25T06:02:27.576Z,8.20
2023-03-25T06:08:30.028Z,8.10
2023-03-25T06:14:31.892Z,7.90
2023-03-25T06:20:33.735Z,8.00
2023-03-25T06:26:35.540Z,7.90
2023-03-25T06:32:38.375Z,8.20
2023-03-25T06:38:40.296Z,8.40
2023-03-25T06:44:47.917Z,8.70
2023-03-25T06:51:13.316Z,8.80
2023-03-25T06:57:15.342Z,8.80
2023-03-25T07:03:17.116Z,8.70
2023-03-25T07:09:19.081Z,8.60
2023-03-25T07:15:20.899Z,8.90
2023-03-25T07:21:22.946Z,9.10
2023-03-25T07:27:25.599Z,9.10
2023-03-25T07:33:36.517Z,9.30
2023-03-25T07:39:38.438Z,9.80
2023-03-25T07:45:55.731Z,10.00
2023-03-25T07:51:57.669Z,10.20
2023-03-25T07:58:01.947Z,10.50
2023-03-25T08:04:03.994Z,11.00
2023-03-25T08:10:06.468Z,11.20
2023-03-25T08:16:12.206Z,10.90
2023-03-25T08:22:14.479Z,10.90
2023-03-25T08:28:18.108Z,10.90
2023-03-25T08:34:22.003Z,10.80
2023-03-25T08:40:24.112Z,10.60
2023-03-25T08:46:26.177Z,10.60
2023-03-25T08:52:28.088Z,10.50
2023-03-25T08:58:29.885Z,10.70
2023-03-25T09:04:31.707Z,10.70
2023-03-25T09:10:34.117Z,10.60
2023-03-25T09:16:36.921Z,10.60
2023-03-25T09:22:39.674Z,10.60
2023-03-25T09:28:41.520Z,10.90
2023-03-25T09:34:43.967Z,10.90
2023-03-25T09:40:46.009Z,10.90
2023-03-25T09:46:48.636Z,11.30
2023-03-25T09:52:59.696Z,11.40
2023-03-25T09:59:11.800Z,11.30
2023-03-25T10:05:25.444Z,11.10
2023-03-25T10:11:58.525Z,11.00
2023-03-25T10:18:42.862Z,10.60
2023-03-25T10:25:01.222Z,10.20
2023-03-25T10:31:05.636Z,9.90
2023-03-25T10:37:12.680Z,10.10
2023-03-25T10:43:23.759Z,10.40
2023-03-25T10:49:30.084Z,10.60
2023-03-25T10:55:35.467Z,10.60
2023-03-25T11:01:41.203Z,10.90
2023-03-25T11:07:56.260Z,11.20
2023-03-25T11:13:58.215Z,11.60
2023-03-25T11:20:06.854Z,11.70
2023-03-25T11:26:20.376Z,11.70
2023-03-25T11:32:31.056Z,12.00
2023-03-25T11:38:34.391Z,12.20
2023-03-25T11:44:36.385Z,12.60
2023-03-25T11:50:38.364Z,12.70
2023-03-25T11:56:43.020Z,12.80
2023-03-25T12:02:45.333Z,13.20
2023-03-25T12:08:58.752Z,12.60
2023-03-25T12:15:07.308Z,12.40
2023-03-25T12:21:27.944Z,12.30
2023-03-25T12:27:44.658Z,12.60
2023-03-25T12:34:20.080Z,12.60
2023-03-25T12:40:55.419Z,12.60
2023-03-25T12:47:24.854Z,12.80
2023-03-25T12:53:32.846Z,12.70
2023-03-25T12:59:47.682Z,12.60
2023-03-25T13:06:08.492Z,12.70
2023-03-25T13:12:33.010Z,12.80
2023-03-25T13:18:53.787Z,13.00
2023-03-25T13:25:02.023Z,12.80
2023-03-25T13:31:06.337Z,11.90
2023-03-25T13:37:20.899Z,10.80
2023-03-25T13:43:34.870Z,10.50
2023-03-25T13:49:55.888Z,10.70
2023-03-25T13:56:06.934Z,10.70
2023-03-25T14:02:29.723Z,10.90
2023-03-25T14:08:57.072Z,12.20
2023-03-25T14:15:05.239Z,12.70
2023-03-25T14:21:40.091Z,13.20
2023-03-25T14:27:49.131Z,12.60
2023-03-25T14:34:02.727Z,11.80
2023-03-25T14:40:55.405Z,10.70
2023-03-25T14:47:16.996Z,11.00
2023-03-25T14:53:18.941Z,12.20
2023-03-25T14:59:25.234Z,12.70
2023-03-25T15:05:30.150Z,12.80
2023-03-25T15:11:35.332Z,12.80
2023-03-25T15:17:49.120Z,12.30
2023-03-25T15:24:10.946Z,12.10
2023-03-25T15:30:56.871Z,12.00
2023-03-25T15:37:19.194Z,11.80
2023-03-25T15:43:53.355Z,11.70
2023-03-25T15:50:17.574Z,11.90
2023-03-25T15:56:27.402Z,12.00
2023-03-25T16:02:37.066Z,11.70
2023-03-25T16:08:42.798Z,11.50
2023-03-25T16:14:47.050Z,11.20
2023-03-25T16:20:56.588Z,11.00
2023-03-25T16:26:58.359Z,11.30
2023-03-25T16:33:12.054Z,11.60
2023-03-25T16:39:15.560Z,12.00
2023-03-25T16:45:17.508Z,11.70
2023-03-25T16:51:29.071Z,11.20
2023-03-25T16:57:34.270Z,11.00
2023-03-25T17:03:47.296Z,10.70
2023-03-25T17:09:54.947Z,10.50
2023-03-25T17:15:57.307Z,10.40
2023-03-25T17:22:01.609Z,10.30
2023-03-25T17:28:40.136Z,10.20
2023-03-25T17:34:45.460Z,10.10
2023-03-25T17:40:47.644Z,10.00
2023-03-25T17:46:49.484Z,9.90
2023-03-25T17:52:51.836Z,9.90
2023-03-25T17:59:02.434Z,9.80
2023-03-25T18:05:07.176Z,9.80
2023-03-25T18:11:11.289Z,9.80
2023-03-25T18:17:13.153Z,9.80
2023-03-25T18:23:15.565Z,9.80
2023-03-25T18:29:23.141Z,9.80
2023-03-25T18:35:24.986Z,9.70
2023-03-25T18:41:27.023Z,9.60
2023-03-25T18:47:28.820Z,9.30
2023-03-25T18:53:31.152Z,9.20
2023-03-25T18:59:32.906Z,9.00
2023-03-25T19:05:35.245Z,8.80
2023-03-25T19:11:37.050Z,8.70
2023-03-25T19:17:38.975Z,8.70
2023-03-25T19:23:41.859Z,8.70
2023-03-25T19:29:43.710Z,8.40
2023-03-25T19:35:57.988Z,8.00
2023-03-25T19:41:59.994Z,7.70
2023-03-25T19:48:01.931Z,7.60
2023-03-25T19:54:04.038Z,7.60
2023-03-25T20:00:12.568Z,7.40
2023-03-25T20:06:14.530Z,7.60
2023-03-25T20:12:19.172Z,7.80
2023-03-25T20:18:21.191Z,7.90
2023-03-25T20:24:23.045Z,7.90
2023-03-25T20:30:25.619Z,7.90
2023-03-25T20:36:27.886Z,7.80
2023-03-25T20:42:29.772Z,7.80
2023-03-25T20:48:32.234Z,7.70
2023-03-25T20:54:35.154Z,7.80
2023-03-25T21:00:37.415Z,7.80
2023-03-25T21:06:39.519Z,7.80
2023-03-25T21:12:44.372Z,7.90
2023-03-25T21:18:47.930Z,7.90
2023-03-25T21:24:49.727Z,7.80
2023-03-25T21:31:06.519Z,7.90
2023-03-25T21:37:08.950Z,7.80
2023-03-25T21:43:10.797Z,7.80
2023-03-25T21:49:15.474Z,7.80
2023-03-25T21:55:17.442Z,7.70
2023-03-25T22:01:23.243Z,7.70
2023-03-25T22:07:25.327Z,7.80
2023-03-25T22:13:27.080Z,7.80
2023-03-25T22:19:28.852Z,7.80
2023-03-25T22:25:30.891Z,7.80
2023-03-25T22:31:39.456Z,7.70
2023-03-25T22:37:41.967Z,7.80
2023-03-25T22:43:45.773Z,7.90
2023-03-25T22:49:47.521Z,7.90
2023-03-25T22:55:54.968Z,7.80
2023-03-25T23:01:56.974Z,7.80
2023-03-25T23:07:58.815Z,7.90
2023-03-25T23:14:08.793Z,7.80
2023-03-25T23:20:11.531Z,7.90
2023-03-25T23:26:16.660Z,7.80
2023-03-25T23:32:18.433Z,7.80
2023-03-25T23:38:21.842Z,7.80
2023-03-25T23:44:23.617Z,7.70
2023-03-25T23:50:25.883Z,7.70
2023-03-25T23:56:28.003Z,7.70
